createdAt,value
2019-04-25T00:02:27.572Z,96.20
2019-04-25T00:04:57.279Z,97.00
2019-04-25T00:07:27.051Z,96.70
2019-04-25T00:09:56.849Z,97.30
2019-04-25T00:12:27.252Z,96.80
2019-04-25T00:14:56.924Z,96.40
2019-04-25T00:17:27.508Z,96.50
2019-04-25T00:19:57.544Z,97.00
2019-04-25T00:22:28.813Z,97.00
2019-04-25T00:25:15.257Z,97.10
2019-04-25T00:27:35.548Z,97.00
2019-04-25T00:30:07.629Z,97.00
2019-04-25T00:32:37.347Z,97.00
2019-04-25T00:35:07.285Z,97.00
2019-04-25T00:37:36.921Z,97.00
2019-04-25T00:40:08.428Z,96.90
2019-04-25T00:42:38.064Z,96.70
2019-04-25T00:45:08.697Z,96.50
2019-04-25T00:47:38.331Z,96.30
2019-04-25T00:50:08.163Z,96.30
2019-04-25T00:52:37.803Z,96.40
2019-04-25T00:55:07.800Z,95.70
2019-04-25T00:57:39.106Z,95.30
2019-04-25T01:00:32.584Z,94.80
2019-04-25T01:03:04.025Z,94.80
2019-04-25T01:05:33.659Z,95.10
2019-04-25T01:08:03.628Z,95.20
2019-04-25T01:10:33.327Z,95.10
2019-04-25T01:13:03.127Z,95.10
2019-04-25T01:15:33.041Z,95.10
2019-04-25T01:18:02.904Z,95.00
2019-04-25T01:20:32.506Z,94.90
2019-04-25T01:23:03.711Z,94.80
2019-04-25T01:25:41.032Z,94.50
2019-04-25T01:28:05.048Z,94.70
2019-04-25T01:30:34.720Z,94.80
2019-04-25T01:33:05.124Z,94.20
2019-04-25T01:35:39.261Z,94.20
2019-04-25T01:38:13.865Z,93.90
2019-04-25T01:41:03.202Z,93.80
2019-04-25T01:43:52.762Z,94.00
2019-04-25T01:46:20.987Z,93.90
2019-04-25T01:48:50.690Z,93.90
2019-04-25T01:51:20.527Z,94.10
2019-04-25T01:53:50.539Z,94.00
2019-04-25T01:56:20.224Z,94.00
2019-04-25T01:58:49.860Z,93.90
2019-04-25T02:01:19.809Z,93.90
2019-04-25T02:03:49.500Z,93.90
2019-04-25T02:06:19.102Z,94.00
2019-04-25T02:08:48.720Z,93.80
2019-04-25T02:11:24.016Z,93.70
2019-04-25T02:13:54.927Z,93.90
2019-04-25T02:16:25.301Z,94.10
2019-04-25T02:18:55.523Z,94.00
2019-04-25T02:21:26.085Z,94.00
2019-04-25T02:23:56.615Z,93.70
2019-04-25T02:26:26.338Z,94.00
2019-04-25T02:28:56.488Z,94.30
2019-04-25T02:31:26.862Z,94.40
2019-04-25T02:33:57.843Z,94.40
2019-04-25T02:36:27.969Z,94.60
2019-04-25T02:39:01.216Z,94.60
2019-04-25T02:41:28.952Z,94.60
2019-04-25T02:44:03.754Z,94.90
2019-04-25T02:46:49.456Z,95.00
2019-04-25T02:49:39.460Z,94.90
2019-04-25T02:52:15.238Z,94.80
2019-04-25T02:54:44.912Z,95.00
2019-04-25T02:57:14.819Z,95.20
2019-04-25T02:59:45.112Z,95.30
2019-04-25T03:02:15.655Z,95.20
2019-04-25T03:04:45.356Z,95.10
2019-04-25T03:07:17.479Z,95.00
2019-04-25T03:09:46.570Z,94.80
2019-04-25T03:12:29.789Z,94.40
2019-04-25T03:14:47.765Z,94.70
2019-04-25T03:17:17.499Z,95.00
2019-04-25T03:19:54.320Z,95.10
2019-04-25T03:22:28.402Z,95.00
2019-04-25T03:24:58.711Z,95.00
2019-04-25T03:27:29.496Z,95.10
2019-04-25T03:29:59.743Z,95.10
2019-04-25T03:32:29.394Z,95.10
2019-04-25T03:34:59.145Z,95.50
2019-04-25T03:37:28.748Z,95.80
2019-04-25T03:39:58.372Z,95.80
2019-04-25T03:42:28.111Z,95.80
2019-04-25T03:44:57.743Z,95.80
2019-04-25T03:47:27.418Z,95.10
2019-04-25T03:49:57.054Z,95.50
2019-04-25T03:52:26.725Z,95.50
2019-04-25T03:54:56.820Z,95.40
2019-04-25T03:57:26.537Z,94.80
2019-04-25T03:59:56.221Z,94.90
2019-04-25T04:02:25.841Z,94.80
2019-04-25T04:04:55.591Z,94.80
2019-04-25T04:07:25.248Z,94.60
2019-04-25T04:09:55.255Z,94.60
2019-04-25T04:12:25.004Z,94.70
2019-04-25T04:14:54.597Z,94.70
2019-04-25T04:17:34.820Z,94.90
2019-04-25T04:20:07.029Z,95.00
2019-04-25T04:22:43.865Z,94.70
2019-04-25T04:25:15.973Z,94.60
2019-04-25T04:27:45.641Z,94.70
2019-04-25T04:30:16.395Z,94.80
2019-04-25T04:32:46.121Z,94.60
2019-04-25T04:35:16.174Z,94.80
2019-04-25T04:37:46.962Z,94.60
2019-04-25T04:40:17.651Z,94.40
2019-04-25T04:42:47.943Z,94.20
2019-04-25T04:45:18.265Z,94.20
2019-04-25T04:47:47.851Z,94.10
2019-04-25T04:50:17.551Z,93.90
2019-04-25T04:52:47.153Z,94.10
2019-04-25T04:55:17.607Z,94.30
2019-04-25T04:57:48.222Z,94.20
2019-04-25T05:00:18.665Z,93.80
2019-04-25T05:02:49.922Z,93.90
2019-04-25T05:05:24.799Z,93.80
2019-04-25T05:07:58.868Z,94.10
2019-04-25T05:10:28.571Z,94.10
2019-04-25T05:12:59.724Z,94.10
2019-04-25T05:15:29.325Z,94.10
2019-04-25T05:17:58.948Z,94.10
2019-04-25T05:20:28.566Z,93.80
2019-04-25T05:22:58.195Z,93.70
2019-04-25T05:25:27.805Z,93.70
2019-04-25T05:28:02.776Z,93.30
2019-04-25T05:30:30.475Z,92.60
2019-04-25T05:33:00.078Z,92.40
2019-04-25T05:35:29.742Z,92.20
2019-04-25T05:37:59.443Z,92.60
2019-04-25T05:40:29.074Z,92.80
2019-04-25T05:43:00.336Z,92.50
2019-04-25T05:45:31.407Z,91.70
2019-04-25T05:48:01.044Z,91.00
2019-04-25T05:50:30.708Z,91.40
2019-04-25T05:53:00.374Z,90.90
2019-04-25T05:55:29.972Z,90.60
2019-04-25T05:57:59.663Z,88.30
2019-04-25T06:00:29.427Z,87.90
2019-04-25T06:02:59.049Z,90.00
2019-04-25T06:05:28.711Z,89.40
2019-04-25T06:07:58.338Z,89.00
2019-04-25T06:10:36.576Z,87.00
2019-04-25T06:13:26.429Z,87.30
2019-04-25T06:15:57.114Z,85.50
2019-04-25T06:18:32.062Z,84.40
2019-04-25T06:21:03.101Z,83.10
2019-04-25T06:23:34.544Z,83.90
2019-04-25T06:26:19.195Z,86.10
2019-04-25T06:28:35.493Z,83.40
2019-04-25T06:31:10.067Z,82.90
2019-04-25T06:33:36.750Z,80.60
2019-04-25T06:36:06.384Z,79.60
2019-04-25T06:38:36.016Z,78.70
2019-04-25T06:41:05.825Z,71.80
2019-04-25T06:43:37.100Z,64.90
2019-04-25T06:46:21.081Z,69.70
2019-04-25T06:49:00.823Z,64.90
2019-04-25T06:51:44.009Z,59.60
2019-04-25T06:54:15.280Z,59.00
2019-04-25T06:56:44.988Z,57.20
2019-04-25T06:59:14.844Z,57.10
2019-04-25T07:01:44.655Z,56.50
2019-04-25T07:04:14.495Z,56.30
2019-04-25T07:06:45.582Z,55.70
2019-04-25T07:09:15.315Z,56.40
2019-04-25T07:11:45.033Z,55.50
2019-04-25T07:14:14.669Z,55.40
2019-04-25T07:16:44.276Z,55.80
2019-04-25T07:19:15.266Z,56.70
2019-04-25T07:21:45.462Z,54.70
2019-04-25T07:24:17.419Z,56.00
2019-04-25T07:26:54.066Z,53.90
2019-04-25T07:29:43.209Z,54.90
2019-04-25T07:32:20.409Z,53.60
2019-04-25T07:34:50.295Z,51.20
2019-04-25T07:37:19.895Z,48.40
2019-04-25T07:39:49.534Z,48.30
2019-04-25T07:42:19.128Z,46.60
2019-04-25T07:44:52.692Z,48.00
2019-04-25T07:47:20.147Z,46.60
2019-04-25T07:49:49.728Z,48.40
2019-04-25T07:52:19.356Z,46.20
2019-04-25T07:54:48.948Z,44.70
2019-04-25T07:57:18.581Z,43.70
2019-04-25T07:59:51.605Z,44.70
2019-04-25T08:02:20.545Z,43.30
2019-04-25T08:04:50.192Z,43.70
2019-04-25T08:07:19.852Z,43.40
2019-04-25T08:09:49.551Z,43.20
2019-04-25T08:12:19.232Z,41.10
2019-04-25T08:14:54.226Z,40.90
2019-04-25T08:17:41.402Z,41.80
2019-04-25T08:20:13.552Z,41.50
2019-04-25T08:22:55.713Z,41.60
2019-04-25T08:25:17.428Z,41.90
2019-04-25T08:27:47.199Z,41.80
2019-04-25T08:30:31.424Z,43.40
2019-04-25T08:33:01.177Z,43.10
2019-04-25T08:35:31.678Z,42.70
2019-04-25T08:38:01.331Z,42.70
2019-04-25T08:40:32.597Z,42.20
2019-04-25T08:43:03.567Z,43.90
2019-04-25T08:45:35.675Z,44.00
2019-04-25T08:48:06.562Z,42.80
2019-04-25T08:50:53.696Z,41.50
2019-04-25T08:53:25.044Z,41.80
2019-04-25T08:56:05.037Z,43.30
2019-04-25T08:59:01.453Z,43.40
2019-04-25T09:01:23.618Z,41.50
2019-04-25T09:03:55.043Z,42.70
2019-04-25T09:06:24.711Z,43.50
2019-04-25T09:08:54.308Z,41.40
2019-04-25T09:11:24.465Z,41.20
2019-04-25T09:13:54.103Z,42.70
2019-04-25T09:16:24.032Z,42.40
2019-04-25T09:18:54.056Z,42.10
2019-04-25T09:21:23.930Z,40.40
2019-04-25T09:23:53.655Z,40.40
2019-04-25T09:26:24.120Z,41.80
2019-04-25T09:28:53.871Z,41.20
2019-04-25T09:31:23.745Z,39.90
2019-04-25T09:33:55.113Z,40.00
2019-04-25T09:36:24.818Z,39.90
2019-04-25T09:38:56.244Z,38.30
2019-04-25T09:41:26.108Z,38.70
2019-04-25T09:43:57.519Z,39.80
2019-04-25T09:46:31.594Z,39.30
2019-04-25T09:49:06.060Z,37.70
2019-04-25T09:51:37.598Z,39.50
2019-04-25T09:54:25.290Z,39.50
2019-04-25T09:56:56.725Z,39.00
2019-04-25T09:59:29.376Z,39.00
2019-04-25T10:01:58.139Z,38.30
2019-04-25T10:04:28.099Z,38.50
2019-04-25T10:06:57.989Z,39.50
2019-04-25T10:09:28.186Z,39.00
2019-04-25T10:11:57.819Z,39.00
2019-04-25T10:14:40.891Z,39.60
2019-04-25T10:17:10.657Z,39.00
2019-04-25T10:19:41.141Z,38.70
2019-04-25T10:22:10.909Z,40.00
2019-04-25T10:24:40.607Z,38.80
2019-04-25T10:27:10.412Z,39.30
2019-04-25T10:29:47.318Z,37.40
2019-04-25T10:32:13.024Z,38.90
2019-04-25T10:34:45.154Z,38.30
2019-04-25T10:37:16.757Z,38.20
2019-04-25T10:39:46.547Z,37.60
2019-04-25T10:42:16.523Z,38.90
2019-04-25T10:44:47.093Z,38.30
2019-04-25T10:47:17.197Z,37.90
2019-04-25T10:49:47.330Z,37.50
2019-04-25T10:52:17.229Z,38.30
2019-04-25T10:54:47.891Z,37.70
2019-04-25T10:57:17.897Z,36.40
2019-04-25T11:00:00.707Z,38.90
2019-04-25T11:02:19.142Z,37.40
2019-04-25T11:04:54.520Z,36.30
2019-04-25T11:07:24.222Z,37.30
2019-04-25T11:09:55.126Z,37.70
2019-04-25T11:12:25.106Z,37.40
2019-04-25T11:14:56.113Z,37.00
2019-04-25T11:17:25.930Z,37.00
2019-04-25T11:19:55.658Z,36.30
2019-04-25T11:22:25.266Z,37.20
2019-04-25T11:24:54.860Z,37.30
2019-04-25T11:27:25.114Z,37.90
2019-04-25T11:30:08.208Z,36.60
2019-04-25T11:32:28.685Z,37.00
2019-04-25T11:34:58.278Z,36.50
2019-04-25T11:37:31.030Z,36.40
2019-04-25T11:40:04.135Z,37.20
2019-04-25T11:42:33.982Z,39.70
2019-04-25T11:45:06.022Z,37.30
2019-04-25T11:47:36.279Z,37.40
2019-04-25T11:50:08.958Z,37.00
2019-04-25T11:52:38.841Z,37.00
2019-04-25T11:55:09.447Z,36.90
2019-04-25T11:57:39.451Z,36.20
2019-04-25T12:00:21.619Z,36.70
2019-04-25T12:02:43.947Z,36.50
2019-04-25T12:05:15.102Z,36.90
2019-04-25T12:07:45.438Z,37.20
2019-04-25T12:10:17.420Z,36.90
2019-04-25T12:12:47.363Z,36.90
2019-04-25T12:15:17.264Z,36.30
2019-04-25T12:17:47.439Z,36.30
2019-04-25T12:20:17.379Z,36.30
2019-04-25T12:22:46.974Z,35.80
2019-04-25T12:25:16.753Z,35.00
2019-04-25T12:27:48.601Z,35.40
2019-04-25T12:30:18.721Z,35.70
2019-04-25T12:32:48.454Z,35.00
2019-04-25T12:35:18.159Z,35.20
2019-04-25T12:37:48.144Z,35.80
2019-04-25T12:40:18.074Z,35.60
2019-04-25T12:42:47.940Z,35.50
2019-04-25T12:45:19.328Z,35.70
2019-04-25T12:47:50.786Z,34.10
2019-04-25T12:50:20.683Z,33.90
2019-04-25T12:52:50.589Z,35.30
2019-04-25T12:55:20.614Z,34.80
2019-04-25T12:57:51.361Z,34.40
2019-04-25T13:00:26.057Z,34.90
2019-04-25T13:02:56.568Z,35.40
2019-04-25T13:05:26.345Z,35.30
2019-04-25T13:07:58.593Z,35.50
2019-04-25T13:10:27.382Z,35.10
2019-04-25T13:12:57.064Z,35.70
2019-04-25T13:15:27.049Z,34.00
2019-04-25T13:17:57.143Z,34.50
2019-04-25T13:20:26.770Z,34.60
2019-04-25T13:22:56.413Z,35.10
2019-04-25T13:25:26.079Z,33.90
2019-04-25T13:28:14.422Z,34.00
2019-04-25T13:31:10.011Z,34.40
2019-04-25T13:33:37.583Z,34.00
2019-04-25T13:36:08.827Z,34.10
2019-04-25T13:38:38.527Z,34.00
2019-04-25T13:41:08.134Z,34.20
2019-04-25T13:43:37.753Z,32.80
2019-04-25T13:46:07.424Z,33.30
2019-04-25T13:48:37.134Z,32.60
2019-04-25T13:51:06.839Z,33.50
2019-04-25T13:53:36.439Z,32.90
2019-04-25T13:56:06.346Z,33.10
2019-04-25T13:58:36.028Z,33.00
2019-04-25T14:01:12.831Z,33.30
2019-04-25T14:03:38.094Z,33.20
2019-04-25T14:06:08.233Z,33.20
2019-04-25T14:08:37.831Z,33.20
2019-04-25T14:11:07.835Z,32.90
2019-04-25T14:13:37.434Z,32.80
2019-04-25T14:16:19.523Z,32.80
2019-04-25T14:18:53.723Z,32.50
2019-04-25T14:21:24.637Z,32.70
2019-04-25T14:23:54.736Z,32.90
2019-04-25T14:26:25.098Z,32.40
2019-04-25T14:28:54.719Z,33.10
2019-04-25T14:31:38.902Z,33.10
2019-04-25T14:33:56.611Z,32.60
2019-04-25T14:36:27.709Z,33.10
2019-04-25T14:38:57.574Z,32.70
2019-04-25T14:41:28.114Z,32.40
2019-04-25T14:43:57.813Z,33.20
2019-04-25T14:46:27.826Z,33.50
2019-04-25T14:48:57.409Z,33.70
2019-04-25T14:51:28.116Z,34.10
2019-04-25T14:53:59.399Z,33.60
2019-04-25T14:56:39.765Z,33.70
2019-04-25T14:59:09.372Z,34.10
2019-04-25T15:01:44.968Z,34.20
2019-04-25T15:04:10.595Z,33.30
2019-04-25T15:06:40.236Z,33.70
2019-04-25T15:09:10.011Z,34.70
2019-04-25T15:11:39.642Z,34.20
2019-04-25T15:14:09.325Z,33.60
2019-04-25T15:16:38.959Z,34.10
2019-04-25T15:19:08.554Z,34.10
2019-04-25T15:21:38.259Z,34.40
2019-04-25T15:24:07.894Z,34.70
2019-04-25T15:26:40.181Z,34.10
2019-04-25T15:29:08.891Z,34.30
2019-04-25T15:31:38.488Z,36.30
2019-04-25T15:34:08.124Z,35.40
2019-04-25T15:36:41.955Z,35.00
2019-04-25T15:39:29.675Z,34.80
2019-04-25T15:41:59.040Z,35.80
2019-04-25T15:44:33.234Z,36.40
2019-04-25T15:47:04.410Z,36.50
2019-04-25T15:49:34.568Z,35.60
2019-04-25T15:52:05.798Z,35.30
2019-04-25T15:54:35.430Z,35.50
2019-04-25T15:57:05.699Z,34.80
2019-04-25T15:59:37.417Z,34.90
2019-04-25T16:02:08.755Z,34.80
2019-04-25T16:04:38.510Z,35.40
2019-04-25T16:07:08.175Z,35.60
2019-04-25T16:09:37.862Z,34.60
2019-04-25T16:12:08.227Z,35.00
2019-04-25T16:14:38.956Z,35.30
2019-04-25T16:17:08.719Z,35.90
2019-04-25T16:19:38.479Z,35.60
2019-04-25T16:22:08.112Z,35.90
2019-04-25T16:24:37.784Z,36.10
2019-04-25T16:27:09.069Z,36.60
2019-04-25T16:29:38.719Z,37.10
2019-04-25T16:32:19.997Z,36.80
2019-04-25T16:34:42.063Z,37.10
2019-04-25T16:37:11.656Z,37.10
2019-04-25T16:39:42.963Z,37.50
2019-04-25T16:42:12.774Z,37.20
2019-04-25T16:44:42.370Z,37.20
2019-04-25T16:47:13.442Z,38.20
2019-04-25T16:49:43.079Z,37.90
2019-04-25T16:52:13.712Z,38.00
2019-04-25T16:54:43.393Z,38.30
2019-04-25T16:57:13.058Z,37.80
2019-04-25T16:59:42.763Z,37.80
2019-04-25T17:02:12.704Z,37.70
2019-04-25T17:04:42.439Z,38.50
2019-04-25T17:07:12.247Z,38.60
2019-04-25T17:09:42.822Z,39.20
2019-04-25T17:12:12.911Z,38.70
2019-04-25T17:14:44.246Z,38.10
2019-04-25T17:17:18.265Z,39.00
2019-04-25T17:19:52.340Z,38.80
2019-04-25T17:22:22.342Z,39.20
2019-04-25T17:24:51.981Z,39.00
2019-04-25T17:27:22.265Z,39.30
2019-04-25T17:29:51.974Z,39.60
2019-04-25T17:32:51.177Z,39.40
2019-04-25T17:35:10.935Z,39.30
2019-04-25T17:37:58.310Z,39.40
2019-04-25T17:40:29.623Z,39.30
2019-04-25T17:43:10.432Z,40.10
2019-04-25T17:45:33.353Z,40.50
2019-04-25T17:48:03.192Z,40.10
2019-04-25T17:50:32.985Z,40.40
2019-04-25T17:53:03.066Z,40.40
2019-04-25T17:55:33.347Z,40.70
2019-04-25T17:58:03.280Z,40.60
2019-04-25T18:00:35.307Z,41.60
2019-04-25T18:03:07.202Z,41.70
2019-04-25T18:05:36.870Z,41.80
2019-04-25T18:08:06.716Z,41.50
2019-04-25T18:10:37.637Z,41.60
2019-04-25T18:13:09.439Z,42.10
2019-04-25T18:15:56.777Z,42.20
2019-04-25T18:18:30.772Z,42.20
2019-04-25T18:21:00.389Z,42.40
2019-04-25T18:23:43.948Z,42.30
2019-04-25T18:26:25.094Z,42.50
2019-04-25T18:28:56.397Z,42.90
2019-04-25T18:31:26.075Z,43.60
2019-04-25T18:33:57.376Z,43.30
2019-04-25T18:36:31.558Z,43.40
2019-04-25T18:39:18.809Z,43.30
2019-04-25T18:41:55.545Z,42.80
2019-04-25T18:44:25.161Z,42.80
2019-04-25T18:46:54.830Z,44.40
2019-04-25T18:49:24.462Z,43.80
2019-04-25T18:51:58.094Z,43.50
2019-04-25T18:54:34.582Z,43.20
2019-04-25T18:57:06.027Z,43.20
2019-04-25T18:59:52.965Z,44.10
2019-04-25T19:02:36.140Z,43.30
2019-04-25T19:05:08.514Z,43.00
2019-04-25T19:07:38.606Z,43.40
2019-04-25T19:10:09.401Z,43.50
2019-04-25T19:12:40.198Z,43.10
2019-04-25T19:15:10.626Z,43.60
2019-04-25T19:17:41.282Z,43.60
2019-04-25T19:20:11.275Z,43.60
2019-04-25T19:22:41.521Z,43.20
2019-04-25T19:25:11.348Z,44.20
2019-04-25T19:27:42.033Z,43.50
2019-04-25T19:30:13.641Z,43.70
2019-04-25T19:32:43.346Z,44.50
2019-04-25T19:35:13.160Z,43.60
2019-04-25T19:37:43.798Z,44.70
2019-04-25T19:40:30.287Z,43.90
2019-04-25T19:43:06.300Z,43.80
2019-04-25T19:45:35.964Z,44.10
2019-04-25T19:48:05.623Z,44.10
2019-04-25T19:50:35.259Z,44.30
2019-04-25T19:53:04.924Z,43.90
2019-04-25T19:55:34.643Z,44.70
2019-04-25T19:58:04.410Z,44.70
2019-04-25T20:00:36.862Z,45.40
2019-04-25T20:03:19.163Z,46.60
2019-04-25T20:05:50.508Z,48.60
2019-04-25T20:08:27.329Z,48.50
2019-04-25T20:11:04.243Z,47.30
2019-04-25T20:13:33.894Z,46.70
2019-04-25T20:16:03.564Z,46.40
2019-04-25T20:18:33.196Z,46.20
2019-04-25T20:21:02.838Z,46.20
2019-04-25T20:23:32.446Z,46.70
2019-04-25T20:26:02.078Z,46.40
2019-04-25T20:28:31.680Z,46.40
2019-04-25T20:31:01.309Z,46.40
2019-04-25T20:33:30.906Z,46.30
2019-04-25T20:36:00.535Z,46.00
2019-04-25T20:38:30.143Z,46.10
2019-04-25T20:40:59.787Z,46.20
2019-04-25T20:43:29.415Z,45.90
2019-04-25T20:45:59.078Z,46.90
2019-04-25T20:48:28.709Z,47.20
2019-04-25T20:50:58.350Z,46.70
2019-04-25T20:53:27.986Z,48.00
2019-04-25T20:55:57.588Z,47.80
2019-04-25T20:58:27.232Z,47.40
2019-04-25T21:00:58.501Z,46.70
2019-04-25T21:03:28.099Z,46.50
2019-04-25T21:05:59.380Z,45.90
2019-04-25T21:08:28.977Z,46.20
2019-04-25T21:10:58.571Z,47.20
2019-04-25T21:13:32.521Z,46.90
2019-04-25T21:16:06.507Z,46.70
2019-04-25T21:18:37.747Z,47.30
2019-04-25T21:21:07.386Z,47.10
2019-04-25T21:23:37.019Z,46.80
2019-04-25T21:26:06.608Z,47.10
2019-04-25T21:28:36.246Z,47.00
2019-04-25T21:31:06.087Z,47.40
2019-04-25T21:33:35.695Z,47.10
2019-04-25T21:36:05.659Z,46.90
2019-04-25T21:38:35.574Z,47.40
2019-04-25T21:41:09.459Z,47.30
2019-04-25T21:43:40.912Z,47.00
2019-04-25T21:46:10.788Z,47.10
2019-04-25T21:48:40.683Z,47.10
2019-04-25T21:51:27.784Z,46.70
2019-04-25T21:53:57.532Z,46.50
2019-04-25T21:56:27.436Z,47.30
2019-04-25T21:58:57.762Z,47.40
2019-04-25T22:01:30.468Z,47.10
2019-04-25T22:04:00.719Z,47.50
2019-04-25T22:06:30.739Z,47.10
2019-04-25T22:09:00.834Z,47.60
2019-04-25T22:11:30.715Z,47.40
2019-04-25T22:14:01.372Z,47.50
2019-04-25T22:16:31.307Z,47.80
2019-04-25T22:19:02.028Z,47.90
2019-04-25T22:21:38.098Z,47.30
2019-04-25T22:24:12.828Z,47.00
2019-04-25T22:26:35.443Z,47.40
2019-04-25T22:29:05.757Z,47.20
2019-04-25T22:31:38.228Z,47.10
2019-04-25T22:34:09.531Z,47.50
2019-04-25T22:36:39.409Z,47.40
2019-04-25T22:39:11.054Z,47.50
2019-04-25T22:41:46.474Z,47.50
2019-04-25T22:44:17.646Z,47.80
2019-04-25T22:46:48.040Z,47.90
2019-04-25T22:49:17.672Z,48.40
2019-04-25T22:51:47.268Z,48.60
2019-04-25T22:54:17.178Z,48.80
2019-04-25T22:56:46.800Z,49.20
2019-04-25T22:59:16.709Z,49.30
2019-04-25T23:01:50.954Z,49.20
2019-04-25T23:04:38.139Z,49.00
2019-04-25T23:07:07.971Z,49.00
2019-04-25T23:09:38.735Z,49.20
2019-04-25T23:12:08.789Z,49.80
2019-04-25T23:14:38.738Z,49.10
2019-04-25T23:17:09.379Z,49.10
2019-04-25T23:19:39.423Z,49.90
2019-04-25T23:22:09.491Z,48.80
2019-04-25T23:24:40.839Z,49.10
2019-04-25T23:27:15.586Z,48.00
2019-04-25T23:29:45.179Z,48.00
2019-04-25T23:32:15.093Z,46.70
2019-04-25T23:34:44.694Z,47.00
2019-04-25T23:37:15.202Z,47.40
2019-04-25T23:39:45.055Z,47.90
2019-04-25T23:42:15.582Z,46.60
2019-04-25T23:44:45.615Z,47.70
2019-04-25T23:47:16.330Z,47.50
2019-04-25T23:49:46.027Z,50.10
2019-04-25T23:52:17.167Z,50.00
2019-04-25T23:54:46.865Z,51.50
2019-04-25T23:57:17.741Z,51.70
2019-04-25T23:59:47.471Z,52.80
